createdAt,value
2023-01-23T00:00:47.833Z,95.73
2023-01-23T00:01:47.879Z,95.42
2023-01-23T00:02:47.861Z,95.42
2023-01-23T00:03:47.885Z,95.42
2023-01-23T00:04:47.779Z,95.31
2023-01-23T00:05:47.813Z,95.21
2023-01-23T00:06:47.784Z,95.21
2023-01-23T00:07:47.772Z,95.31
2023-01-23T00:08:47.747Z,95.42
2023-01-23T00:09:47.755Z,95.31
2023-01-23T00:10:47.716Z,95.21
2023-01-23T00:11:47.741Z,95.42
2023-01-23T00:12:47.728Z,95.52
2023-01-23T00:13:48.713Z,95.73
2023-01-23T00:14:47.689Z,95.94
2023-01-23T00:15:47.746Z,95.94
2023-01-23T00:16:47.707Z,95.83
2023-01-23T00:17:47.679Z,95.62
2023-01-23T00:18:47.651Z,95.73
2023-01-23T00:19:47.664Z,95.73
2023-01-23T00:20:47.635Z,95.52
2023-01-23T00:21:47.638Z,95.21
2023-01-23T00:22:47.602Z,95.21
2023-01-23T00:23:47.616Z,95.31
2023-01-23T00:24:48.545Z,95.31
2023-01-23T00:25:47.637Z,95.10
2023-01-23T00:26:47.567Z,94.96
2023-01-23T00:27:47.571Z,94.96
2023-01-23T00:28:47.544Z,94.85
2023-01-23T00:29:47.564Z,94.85
2023-01-23T00:30:47.563Z,94.85
2023-01-23T00:31:47.638Z,94.75
2023-01-23T00:32:48.444Z,94.64
2023-01-23T00:33:47.510Z,94.64
2023-01-23T00:34:47.537Z,94.54
2023-01-23T00:35:47.483Z,94.54
2023-01-23T00:36:47.464Z,94.43
2023-01-23T00:37:47.507Z,94.23
2023-01-23T00:38:47.429Z,94.54
2023-01-23T00:39:47.426Z,94.64
2023-01-23T00:40:47.404Z,94.54
2023-01-23T00:41:47.444Z,94.64
2023-01-23T00:42:47.377Z,94.90
2023-01-23T00:43:47.394Z,94.90
2023-01-23T00:44:47.358Z,94.90
2023-01-23T00:45:47.412Z,95.00
2023-01-23T00:46:47.375Z,95.10
2023-01-23T00:47:47.372Z,95.21
2023-01-23T00:48:47.338Z,95.10
2023-01-23T00:49:47.343Z,95.21
2023-01-23T00:50:47.332Z,95.31
2023-01-23T00:51:47.354Z,95.52
2023-01-23T00:52:47.324Z,95.52
2023-01-23T00:53:47.284Z,95.73
2023-01-23T00:54:48.217Z,95.73
2023-01-23T00:55:47.289Z,95.73
2023-01-23T00:56:47.230Z,95.58
2023-01-23T00:57:47.245Z,95.48
2023-01-23T00:58:47.215Z,95.37
2023-01-23T00:59:47.254Z,95.27
2023-01-23T01:00:47.191Z,95.37
2023-01-23T01:01:47.276Z,95.27
2023-01-23T01:02:47.209Z,95.17
2023-01-23T01:03:47.209Z,95.06
2023-01-23T01:04:47.142Z,94.96
2023-01-23T01:05:47.171Z,94.85
2023-01-23T01:06:47.126Z,94.85
2023-01-23T01:07:47.154Z,94.85
2023-01-23T01:08:47.105Z,94.85
2023-01-23T01:09:47.122Z,94.85
2023-01-23T01:10:47.089Z,94.75
2023-01-23T01:11:47.091Z,94.64
2023-01-23T01:12:47.077Z,94.54
2023-01-23T01:13:47.060Z,94.49
2023-01-23T01:14:47.038Z,94.54
2023-01-23T01:15:47.090Z,94.49
2023-01-23T01:16:47.977Z,94.49
2023-01-23T01:17:47.042Z,94.49
2023-01-23T01:18:47.008Z,94.49
2023-01-23T01:19:47.008Z,94.49
2023-01-23T01:20:46.984Z,94.49
2023-01-23T01:21:46.997Z,94.60
2023-01-23T01:22:46.964Z,94.60
2023-01-23T01:23:46.966Z,94.60
2023-01-23T01:24:46.928Z,94.60
2023-01-23T01:25:46.946Z,94.64
2023-01-23T01:26:46.916Z,94.64
2023-01-23T01:27:46.935Z,94.75
2023-01-23T01:28:46.885Z,94.85
2023-01-23T01:29:46.899Z,95.06
2023-01-23T01:30:46.876Z,95.06
2023-01-23T01:31:46.901Z,95.17
2023-01-23T01:32:46.855Z,95.27
2023-01-23T01:33:46.912Z,95.27
2023-01-23T01:34:46.838Z,95.27
2023-01-23T01:35:46.839Z,95.27
2023-01-23T01:36:46.803Z,95.27
2023-01-23T01:37:46.870Z,95.27
2023-01-23T01:38:46.781Z,95.27
2023-01-23T01:39:46.794Z,95.37
2023-01-23T01:40:46.766Z,95.27
2023-01-23T01:41:46.793Z,95.27
2023-01-23T01:42:46.736Z,95.27
2023-01-23T01:43:46.766Z,95.37
2023-01-23T01:44:46.754Z,95.48
2023-01-23T01:45:46.745Z,95.48
2023-01-23T01:46:46.789Z,95.48
2023-01-23T01:47:46.699Z,95.48
2023-01-23T01:48:46.661Z,95.37
2023-01-23T01:49:46.690Z,95.27
2023-01-23T01:50:46.671Z,95.48
2023-01-23T01:51:46.675Z,95.68
2023-01-23T01:52:46.649Z,95.79
2023-01-23T01:53:46.652Z,95.89
2023-01-23T01:54:46.605Z,96.00
2023-01-23T01:55:46.660Z,96.11
2023-01-23T01:56:46.580Z,96.00
2023-01-23T01:57:46.627Z,96.00
2023-01-23T01:58:46.563Z,96.00
2023-01-23T01:59:46.680Z,96.11
2023-01-23T02:00:46.589Z,96.11
2023-01-23T02:01:52.734Z,96.25
2023-01-23T02:02:46.606Z,96.36
2023-01-23T02:03:48.012Z,96.46
2023-01-23T02:04:46.639Z,96.67
2023-01-23T02:05:46.546Z,96.67
2023-01-23T02:06:46.475Z,96.77
2023-01-23T02:07:46.500Z,97.09
2023-01-23T02:08:46.483Z,97.44
2023-01-23T02:09:46.475Z,97.65
2023-01-23T02:10:46.495Z,97.97
2023-01-23T02:11:46.462Z,98.18
2023-01-23T02:12:46.436Z,98.38
2023-01-23T02:13:46.469Z,98.49
2023-01-23T02:14:46.399Z,98.59
2023-01-23T02:15:46.420Z,98.49
2023-01-23T02:16:46.373Z,98.28
2023-01-23T02:17:46.392Z,98.38
2023-01-23T02:18:46.365Z,98.34
2023-01-23T02:19:46.393Z,98.34
2023-01-23T02:20:46.340Z,98.23
2023-01-23T02:21:46.357Z,98.13
2023-01-23T02:22:47.262Z,98.02
2023-01-23T02:23:46.399Z,97.71
2023-01-23T02:24:46.308Z,97.61
2023-01-23T02:25:46.335Z,97.61
2023-01-23T02:26:46.296Z,97.71
2023-01-23T02:27:46.285Z,97.71
2023-01-23T02:28:46.261Z,97.61
2023-01-23T02:29:46.271Z,97.61
2023-01-23T02:30:46.267Z,97.71
2023-01-23T02:31:46.342Z,97.71
2023-01-23T02:32:46.212Z,97.61
2023-01-23T02:33:46.210Z,97.40
2023-01-23T02:34:46.183Z,97.40
2023-01-23T02:35:46.243Z,97.40
2023-01-23T02:36:46.179Z,97.50
2023-01-23T02:37:46.172Z,97.35
2023-01-23T02:38:46.176Z,97.35
2023-01-23T02:39:46.175Z,97.25
2023-01-23T02:40:46.136Z,97.14
2023-01-23T02:41:46.219Z,96.94
2023-01-23T02:42:46.156Z,96.94
2023-01-23T02:43:46.128Z,96.94
2023-01-23T02:44:46.089Z,96.83
2023-01-23T02:45:46.146Z,96.73
2023-01-23T02:46:46.065Z,96.73
2023-01-23T02:47:46.088Z,96.77
2023-01-23T02:48:46.041Z,96.88
2023-01-23T02:49:46.078Z,97.09
2023-01-23T02:50:46.023Z,97.30
2023-01-23T02:51:46.031Z,97.40
2023-01-23T02:52:45.998Z,97.30
2023-01-23T02:53:46.047Z,97.30
2023-01-23T02:54:46.020Z,97.40
2023-01-23T02:55:46.016Z,97.40
2023-01-23T02:56:45.950Z,97.40
2023-01-23T02:57:45.967Z,97.30
2023-01-23T02:58:46.883Z,97.30
2023-01-23T02:59:45.948Z,97.30
2023-01-23T03:00:45.974Z,97.19
2023-01-23T03:01:45.940Z,97.14
2023-01-23T03:02:45.887Z,97.14
2023-01-23T03:03:45.922Z,97.04
2023-01-23T03:04:45.882Z,96.94
2023-01-23T03:05:45.895Z,96.94
2023-01-23T03:06:45.842Z,96.83
2023-01-23T03:07:45.858Z,96.62
2023-01-23T03:08:45.833Z,96.52
2023-01-23T03:09:45.842Z,96.52
2023-01-23T03:10:45.835Z,96.42
2023-01-23T03:11:45.823Z,96.21
2023-01-23T03:12:45.814Z,96.21
2023-01-23T03:13:45.805Z,96.21
2023-01-23T03:14:45.778Z,96.11
2023-01-23T03:15:45.787Z,96.11
2023-01-23T03:16:45.773Z,96.21
2023-01-23T03:17:45.762Z,96.11
2023-01-23T03:18:54.174Z,96.11
2023-01-23T03:19:46.729Z,96.11
2023-01-23T03:20:45.725Z,96.11
2023-01-23T03:21:45.767Z,96.11
2023-01-23T03:22:45.730Z,96.00
2023-01-23T03:23:45.654Z,96.11
2023-01-23T03:24:45.699Z,96.21
2023-01-23T03:25:45.659Z,96.31
2023-01-23T03:26:45.746Z,96.31
2023-01-23T03:27:45.673Z,96.31
2023-01-23T03:28:46.585Z,96.31
2023-01-23T03:29:45.589Z,96.21
2023-01-23T03:30:45.644Z,96.11
2023-01-23T03:31:45.653Z,96.21
2023-01-23T03:32:45.604Z,96.21
2023-01-23T03:33:45.597Z,96.21
2023-01-23T03:34:45.571Z,96.31
2023-01-23T03:35:45.537Z,96.42
2023-01-23T03:36:45.591Z,96.62
2023-01-23T03:37:45.580Z,96.52
2023-01-23T03:38:45.547Z,96.52
2023-01-23T03:39:45.497Z,96.67
2023-01-23T03:40:45.527Z,96.88
2023-01-23T03:41:45.499Z,97.09
2023-01-23T03:42:45.483Z,97.19
2023-01-23T03:43:45.519Z,97.19
2023-01-23T03:44:45.607Z,97.19
2023-01-23T03:45:45.513Z,97.19
2023-01-23T03:46:45.429Z,97.19
2023-01-23T03:47:45.403Z,97.19
2023-01-23T03:48:45.425Z,97.30
2023-01-23T03:49:45.416Z,97.40
2023-01-23T03:50:45.422Z,97.50
2023-01-23T03:51:45.397Z,97.50
2023-01-23T03:52:45.405Z,97.61
2023-01-23T03:53:45.425Z,97.50
2023-01-23T03:54:45.398Z,97.40
2023-01-23T03:55:45.336Z,97.30
2023-01-23T03:56:45.336Z,97.50
2023-01-23T03:57:45.327Z,97.61
2023-01-23T03:58:45.328Z,97.61
2023-01-23T03:59:45.269Z,97.56
2023-01-23T04:00:45.387Z,97.35
2023-01-23T04:01:45.279Z,97.14
2023-01-23T04:02:45.326Z,97.09
2023-01-23T04:03:45.276Z,96.98
2023-01-23T04:04:45.242Z,97.09
2023-01-23T04:05:45.232Z,97.09
2023-01-23T04:06:45.240Z,97.19
2023-01-23T04:07:45.207Z,97.40
2023-01-23T04:08:45.206Z,97.50
2023-01-23T04:09:45.182Z,97.61
2023-01-23T04:10:45.213Z,97.71
2023-01-23T04:11:45.159Z,97.71
2023-01-23T04:12:45.184Z,97.71
2023-01-23T04:13:45.167Z,97.81
2023-01-23T04:14:45.149Z,97.81
2023-01-23T04:15:45.144Z,97.92
2023-01-23T04:16:45.249Z,97.92
2023-01-23T04:17:45.124Z,97.92
2023-01-23T04:18:45.197Z,97.81
2023-01-23T04:19:45.082Z,97.81
2023-01-23T04:20:45.115Z,97.81
2023-01-23T04:21:45.064Z,97.81
2023-01-23T04:22:45.075Z,97.92
2023-01-23T04:23:45.015Z,97.92
2023-01-23T04:24:45.032Z,97.81
2023-01-23T04:25:45.001Z,97.71
2023-01-23T04:26:45.035Z,97.50
2023-01-23T04:27:45.001Z,97.40
2023-01-23T04:28:45.008Z,97.50
2023-01-23T04:29:44.983Z,97.50
2023-01-23T04:30:45.103Z,97.50
2023-01-23T04:31:45.055Z,97.40
2023-01-23T04:32:44.943Z,97.30
2023-01-23T04:33:44.965Z,97.40
2023-01-23T04:34:44.930Z,97.50
2023-01-23T04:35:44.920Z,97.50
2023-01-23T04:36:44.940Z,97.61
2023-01-23T04:37:44.898Z,97.61
2023-01-23T04:38:44.877Z,97.61
2023-01-23T04:39:44.847Z,97.50
2023-01-23T04:40:44.894Z,97.61
2023-01-23T04:41:44.830Z,97.50
2023-01-23T04:42:44.870Z,97.61
2023-01-23T04:43:44.836Z,97.71
2023-01-23T04:44:44.826Z,97.71
2023-01-23T04:45:44.804Z,97.71
2023-01-23T04:46:45.763Z,97.71
2023-01-23T04:47:44.788Z,97.46
2023-01-23T04:48:48.013Z,97.35
2023-01-23T04:49:44.758Z,97.25
2023-01-23T04:50:44.758Z,97.14
2023-01-23T04:51:44.756Z,97.04
2023-01-23T04:52:44.767Z,97.04
2023-01-23T04:53:44.692Z,96.83
2023-01-23T04:54:44.699Z,96.62
2023-01-23T04:55:44.678Z,96.62
2023-01-23T04:56:44.728Z,96.62
2023-01-23T04:57:44.664Z,96.52
2023-01-23T04:58:44.669Z,96.52
2023-01-23T04:59:44.654Z,96.31
2023-01-23T05:00:44.751Z,96.31
2023-01-23T05:01:44.649Z,96.42
2023-01-23T05:02:44.660Z,96.52
2023-01-23T05:03:44.609Z,96.67
2023-01-23T05:04:44.615Z,96.88
2023-01-23T05:05:44.590Z,97.09
2023-01-23T05:06:44.616Z,97.19
2023-01-23T05:07:44.545Z,97.40
2023-01-23T05:08:44.569Z,97.50
2023-01-23T05:09:44.532Z,97.50
2023-01-23T05:10:45.426Z,97.30
2023-01-23T05:11:44.540Z,97.30
2023-01-23T05:12:44.578Z,97.19
2023-01-23T05:13:44.480Z,97.19
2023-01-23T05:14:44.519Z,97.19
2023-01-23T05:15:44.505Z,97.19
2023-01-23T05:16:44.463Z,97.30
2023-01-23T05:17:44.495Z,97.40
2023-01-23T05:18:44.500Z,97.30
2023-01-23T05:19:44.443Z,97.40
2023-01-23T05:20:44.494Z,97.30
2023-01-23T05:21:44.419Z,97.30
2023-01-23T05:22:44.450Z,97.30
2023-01-23T05:23:44.402Z,97.25
2023-01-23T05:24:44.396Z,97.14
2023-01-23T05:25:44.398Z,97.14
2023-01-23T05:26:44.456Z,96.94
2023-01-23T05:27:44.416Z,96.73
2023-01-23T05:28:44.393Z,96.73
2023-01-23T05:29:44.352Z,96.52
2023-01-23T05:30:44.448Z,96.31
2023-01-23T05:31:44.421Z,96.16
2023-01-23T05:32:44.356Z,96.06
2023-01-23T05:33:44.296Z,95.95
2023-01-23T05:34:44.306Z,95.85
2023-01-23T05:35:44.271Z,95.75
2023-01-23T05:36:44.284Z,95.64
2023-01-23T05:37:44.230Z,95.54
2023-01-23T05:38:44.259Z,95.54
2023-01-23T05:39:44.256Z,95.43
2023-01-23T05:40:44.269Z,95.33
2023-01-23T05:41:44.210Z,95.23
2023-01-23T05:42:44.217Z,95.12
2023-01-23T05:43:44.173Z,95.23
2023-01-23T05:44:44.171Z,95.33
2023-01-23T05:45:44.165Z,95.43
2023-01-23T05:46:44.175Z,95.43
2023-01-23T05:47:44.135Z,95.23
2023-01-23T05:48:44.161Z,95.12
2023-01-23T05:49:44.106Z,94.92
2023-01-23T05:50:44.112Z,94.92
2023-01-23T05:51:44.086Z,94.92
2023-01-23T05:52:44.131Z,94.81
2023-01-23T05:53:44.071Z,94.81
2023-01-23T05:54:45.048Z,94.81
2023-01-23T05:55:44.716Z,94.81
2023-01-23T05:56:45.046Z,94.92
2023-01-23T05:57:44.024Z,94.92
2023-01-23T05:58:44.025Z,94.92
2023-01-23T05:59:43.991Z,94.92
2023-01-23T06:00:44.017Z,94.81
2023-01-23T06:01:43.974Z,94.81
2023-01-23T06:02:44.028Z,94.60
2023-01-23T06:03:44.018Z,94.49
2023-01-23T06:04:43.989Z,94.39
2023-01-23T06:05:44.888Z,94.39
2023-01-23T06:06:43.946Z,94.49
2023-01-23T06:07:43.927Z,94.39
2023-01-23T06:08:43.929Z,94.49
2023-01-23T06:09:43.946Z,94.60
2023-01-23T06:10:44.863Z,94.49
2023-01-23T06:11:43.889Z,94.49
2023-01-23T06:12:43.904Z,94.60
2023-01-23T06:13:43.846Z,94.60
2023-01-23T06:14:43.868Z,94.60
2023-01-23T06:15:43.877Z,94.60
2023-01-23T06:16:43.847Z,94.49
2023-01-23T06:17:43.970Z,94.39
2023-01-23T06:18:43.885Z,94.29
2023-01-23T06:19:43.788Z,94.08
2023-01-23T06:20:43.794Z,94.29
2023-01-23T06:21:43.806Z,94.49
2023-01-23T06:22:43.779Z,95.23
2023-01-23T06:23:43.747Z,95.43
2023-01-23T06:24:43.799Z,95.12
2023-01-23T06:25:43.770Z,94.70
2023-01-23T06:26:43.735Z,94.43
2023-01-23T06:27:43.717Z,94.54
2023-01-23T06:28:43.719Z,94.85
2023-01-23T06:29:43.675Z,94.75
2023-01-23T06:30:43.739Z,94.85
2023-01-23T06:31:43.756Z,94.75
2023-01-23T06:32:43.712Z,94.85
2023-01-23T06:33:43.630Z,94.85
2023-01-23T06:34:43.643Z,94.85
2023-01-23T06:35:44.013Z,94.75
2023-01-23T06:36:43.664Z,94.64
2023-01-23T06:37:43.572Z,94.64
2023-01-23T06:38:43.599Z,94.64
2023-01-23T06:39:43.568Z,94.39
2023-01-23T06:40:43.604Z,94.18
2023-01-23T06:41:43.633Z,93.98
2023-01-23T06:42:43.564Z,93.87
2023-01-23T06:43:43.528Z,93.87
2023-01-23T06:44:43.571Z,93.66
2023-01-23T06:45:43.486Z,93.46
2023-01-23T06:46:43.603Z,93.35
2023-01-23T06:47:43.534Z,93.35
2023-01-23T06:48:43.494Z,93.35
2023-01-23T06:49:43.467Z,93.46
2023-01-23T06:50:43.492Z,93.46
2023-01-23T06:51:43.433Z,93.35
2023-01-23T06:52:43.481Z,93.24
2023-01-23T06:53:43.425Z,93.20
2023-01-23T06:54:43.495Z,93.10
2023-01-23T06:55:43.405Z,93.14
2023-01-23T06:56:43.402Z,93.10
2023-01-23T06:57:43.387Z,93.10
2023-01-23T06:58:44.358Z,93.10
2023-01-23T06:59:43.428Z,93.10
2023-01-23T07:00:44.308Z,93.10
2023-01-23T07:01:43.389Z,93.10
2023-01-23T07:02:45.722Z,93.10
2023-01-23T07:03:43.307Z,92.99
2023-01-23T07:04:43.336Z,92.89
2023-01-23T07:05:43.332Z,92.99
2023-01-23T07:06:43.295Z,92.89
2023-01-23T07:07:43.287Z,92.89
2023-01-23T07:08:43.275Z,92.89
2023-01-23T07:09:43.235Z,92.89
2023-01-23T07:10:43.279Z,92.79
2023-01-23T07:11:43.211Z,92.89
2023-01-23T07:12:43.234Z,92.99
2023-01-23T07:13:43.204Z,93.10
2023-01-23T07:14:43.215Z,93.10
2023-01-23T07:15:43.205Z,93.10
2023-01-23T07:16:43.206Z,93.10
2023-01-23T07:17:43.150Z,93.10
2023-01-23T07:18:43.181Z,92.99
2023-01-23T07:19:43.158Z,92.89
2023-01-23T07:20:43.185Z,92.68
2023-01-23T07:21:43.116Z,92.68
2023-01-23T07:22:43.139Z,92.68
2023-01-23T07:23:43.131Z,92.58
2023-01-23T07:24:43.106Z,92.47
2023-01-23T07:25:43.106Z,92.33
2023-01-23T07:26:43.088Z,92.27
2023-01-23T07:27:43.073Z,92.33
2023-01-23T07:28:43.096Z,92.22
2023-01-23T07:29:43.074Z,92.22
2023-01-23T07:30:43.067Z,92.22
2023-01-23T07:31:43.025Z,92.12
2023-01-23T07:32:43.014Z,91.81
2023-01-23T07:33:43.014Z,91.60
2023-01-23T07:34:43.032Z,91.28
2023-01-23T07:35:43.017Z,91.28
2023-01-23T07:36:42.949Z,91.50
2023-01-23T07:37:44.455Z,91.50
2023-01-23T07:38:42.980Z,91.50
2023-01-23T07:39:42.938Z,91.50
2023-01-23T07:40:42.944Z,91.50
2023-01-23T07:41:45.367Z,91.28
2023-01-23T07:42:42.929Z,90.87
2023-01-23T07:43:42.909Z,90.97
2023-01-23T07:44:42.874Z,91.08
2023-01-23T07:45:42.882Z,90.97
2023-01-23T07:46:42.879Z,90.77
2023-01-23T07:47:45.469Z,90.87
2023-01-23T07:48:42.846Z,91.08
2023-01-23T07:49:42.860Z,90.87
2023-01-23T07:50:42.835Z,90.97
2023-01-23T07:51:42.812Z,91.08
2023-01-23T07:52:42.781Z,91.28
2023-01-23T07:53:42.827Z,91.50
2023-01-23T07:54:42.802Z,91.53
2023-01-23T07:55:42.801Z,91.50
2023-01-23T07:56:42.736Z,91.50
2023-01-23T07:57:42.751Z,91.60
2023-01-23T07:58:42.760Z,91.60
2023-01-23T07:59:42.724Z,91.33
2023-01-23T08:00:42.780Z,91.53
2023-01-23T08:01:42.731Z,91.96
2023-01-23T08:02:42.679Z,92.16
2023-01-23T08:03:42.768Z,92.47
2023-01-23T08:04:42.677Z,92.37
2023-01-23T08:05:43.980Z,92.27
2023-01-23T08:06:42.643Z,92.37
2023-01-23T08:07:42.670Z,92.47
2023-01-23T08:08:42.616Z,92.37
2023-01-23T08:09:42.627Z,92.37
2023-01-23T08:10:42.583Z,92.16
2023-01-23T08:11:42.620Z,91.96
2023-01-23T08:12:42.581Z,91.85
2023-01-23T08:13:42.641Z,91.96
2023-01-23T08:14:42.540Z,92.16
2023-01-23T08:15:42.564Z,92.27
2023-01-23T08:16:42.650Z,92.27
2023-01-23T08:17:42.558Z,92.27
2023-01-23T08:18:42.497Z,92.27
2023-01-23T08:19:42.507Z,92.22
2023-01-23T08:20:42.478Z,92.22
2023-01-23T08:21:42.515Z,92.12
2023-01-23T08:22:42.462Z,92.12
2023-01-23T08:23:43.508Z,91.96
2023-01-23T08:24:42.443Z,92.16
2023-01-23T08:25:42.446Z,92.37
2023-01-23T08:26:42.427Z,92.47
2023-01-23T08:27:42.480Z,92.47
2023-01-23T08:28:42.403Z,92.58
2023-01-23T08:29:42.412Z,92.58
2023-01-23T08:30:42.425Z,92.79
2023-01-23T08:31:42.453Z,92.89
2023-01-23T08:32:42.343Z,92.89
2023-01-23T08:33:42.395Z,92.89
2023-01-23T08:34:42.333Z,93.10
2023-01-23T08:35:42.367Z,93.31
2023-01-23T08:36:42.310Z,93.31
2023-01-23T08:37:42.374Z,93.31
2023-01-23T08:38:42.326Z,93.20
2023-01-23T08:39:42.293Z,92.99
2023-01-23T08:40:42.291Z,92.79
2023-01-23T08:41:42.305Z,92.79
2023-01-23T08:42:42.252Z,92.79
2023-01-23T08:43:42.256Z,92.79
2023-01-23T08:44:42.279Z,92.89
2023-01-23T08:45:42.325Z,93.10
2023-01-23T08:46:42.196Z,93.20
2023-01-23T08:47:42.251Z,93.20
2023-01-23T08:48:42.256Z,92.99
2023-01-23T08:49:42.188Z,93.20
2023-01-23T08:50:42.150Z,93.14
2023-01-23T08:51:42.169Z,93.35
2023-01-23T08:52:42.153Z,93.41
2023-01-23T08:53:42.183Z,93.14
2023-01-23T08:54:42.116Z,93.24
2023-01-23T08:55:42.139Z,93.56
2023-01-23T08:56:42.098Z,93.66
2023-01-23T08:57:43.076Z,93.56
2023-01-23T08:58:43.020Z,93.56
2023-01-23T08:59:42.087Z,93.46
2023-01-23T09:00:42.085Z,93.77
2023-01-23T09:01:42.066Z,94.08
2023-01-23T09:02:42.039Z,93.87
2023-01-23T09:03:42.041Z,94.08
2023-01-23T09:04:42.007Z,94.43
2023-01-23T09:05:42.026Z,94.60
2023-01-23T09:06:41.986Z,94.70
2023-01-23T09:07:42.034Z,94.70
2023-01-23T09:08:42.001Z,94.29
2023-01-23T09:09:41.996Z,94.18
2023-01-23T09:10:41.973Z,94.39
2023-01-23T09:11:41.967Z,94.39
2023-01-23T09:12:41.977Z,94.29
2023-01-23T09:13:41.925Z,94.29
2023-01-23T09:14:41.903Z,94.18
2023-01-23T09:15:41.909Z,94.14
2023-01-23T09:16:41.921Z,93.93
2023-01-23T09:17:41.889Z,93.83
2023-01-23T09:18:41.867Z,93.62
2023-01-23T09:19:41.883Z,93.62
2023-01-23T09:20:41.829Z,93.83
2023-01-23T09:21:41.890Z,93.83
2023-01-23T09:22:41.867Z,93.62
2023-01-23T09:23:41.834Z,93.52
2023-01-23T09:24:41.793Z,93.52
2023-01-23T09:25:41.812Z,93.73
2023-01-23T09:26:41.766Z,93.62
2023-01-23T09:27:41.813Z,93.62
2023-01-23T09:28:41.801Z,93.52
2023-01-23T09:29:41.758Z,93.41
2023-01-23T09:30:41.830Z,93.62
2023-01-23T09:31:41.822Z,93.73
2023-01-23T09:32:41.730Z,93.62
2023-01-23T09:33:41.778Z,93.62
2023-01-23T09:34:41.711Z,93.41
2023-01-23T09:35:41.994Z,93.52
2023-01-23T09:36:43.501Z,93.41
2023-01-23T09:37:41.720Z,93.41
2023-01-23T09:38:41.655Z,93.31
2023-01-23T09:39:41.684Z,93.31
2023-01-23T09:40:41.633Z,93.41
2023-01-23T09:41:41.667Z,93.52
2023-01-23T09:42:41.599Z,93.31
2023-01-23T09:43:41.608Z,93.10
2023-01-23T09:44:41.598Z,93.31
2023-01-23T09:45:41.610Z,93.41
2023-01-23T09:46:41.582Z,93.52
2023-01-23T09:47:41.571Z,93.48
2023-01-23T09:48:41.590Z,93.16
2023-01-23T09:49:41.550Z,92.95
2023-01-23T09:50:41.512Z,92.74
2023-01-23T09:51:41.546Z,92.33
2023-01-23T09:52:41.540Z,92.22
2023-01-23T09:53:41.556Z,92.22
2023-01-23T09:54:41.488Z,92.33
2023-01-23T09:55:41.539Z,92.22
2023-01-23T09:56:41.500Z,92.02
2023-01-23T09:57:41.479Z,92.12
2023-01-23T09:58:42.371Z,92.43
2023-01-23T09:59:58.402Z,92.64
2023-01-23T10:00:43.284Z,92.74
2023-01-23T10:01:42.408Z,92.64
2023-01-23T10:02:41.443Z,92.43
2023-01-23T10:03:45.340Z,92.54
2023-01-23T10:04:41.372Z,92.22
2023-01-23T10:05:41.383Z,92.08
2023-01-23T10:06:41.355Z,92.18
2023-01-23T10:07:41.391Z,92.18
2023-01-23T10:08:41.323Z,91.66
2023-01-23T10:09:41.371Z,91.56
2023-01-23T10:10:41.329Z,91.66
2023-01-23T10:11:41.322Z,91.77
2023-01-23T10:12:41.306Z,91.77
2023-01-23T10:13:41.310Z,91.66
2023-01-23T10:14:41.281Z,91.87
2023-01-23T10:15:41.297Z,91.97
2023-01-23T10:16:49.852Z,91.66
2023-01-23T10:17:42.249Z,91.41
2023-01-23T10:18:41.232Z,91.14
2023-01-23T10:19:41.239Z,91.14
2023-01-23T10:20:41.211Z,91.66
2023-01-23T10:21:41.216Z,91.66
2023-01-23T10:22:41.183Z,91.77
2023-01-23T10:23:41.192Z,91.97
2023-01-23T10:24:41.154Z,92.08
2023-01-23T10:25:41.202Z,91.83
2023-01-23T10:26:41.134Z,91.52
2023-01-23T10:27:41.148Z,91.41
2023-01-23T10:28:41.103Z,91.31
2023-01-23T10:29:42.076Z,91.20
2023-01-23T10:30:42.148Z,90.89
2023-01-23T10:31:42.247Z,90.69
2023-01-23T10:32:41.071Z,90.79
2023-01-23T10:33:41.093Z,90.69
2023-01-23T10:34:41.035Z,90.79
2023-01-23T10:35:41.098Z,90.79
2023-01-23T10:36:53.454Z,90.69
2023-01-23T10:37:42.050Z,90.69
2023-01-23T10:38:41.020Z,90.58
2023-01-23T10:39:40.999Z,90.54
2023-01-23T10:40:40.987Z,90.54
2023-01-23T10:41:41.992Z,90.44
2023-01-23T10:42:40.974Z,90.47
2023-01-23T10:43:41.004Z,90.37
2023-01-23T10:44:40.949Z,90.89
2023-01-23T10:45:41.038Z,91.10
2023-01-23T10:46:40.925Z,90.89
2023-01-23T10:47:42.828Z,90.69
2023-01-23T10:48:40.875Z,90.58
2023-01-23T10:49:40.898Z,90.58
2023-01-23T10:50:40.880Z,90.58
2023-01-23T10:51:40.902Z,90.47
2023-01-23T10:52:40.835Z,90.58
2023-01-23T10:53:40.871Z,90.37
2023-01-23T10:54:40.828Z,90.47
2023-01-23T10:55:40.840Z,90.79
2023-01-23T10:56:40.809Z,90.79
2023-01-23T10:57:42.831Z,90.69
2023-01-23T10:58:40.796Z,90.47
2023-01-23T10:59:40.793Z,90.26
2023-01-23T11:00:40.791Z,90.47
2023-01-23T11:01:47.207Z,90.69
2023-01-23T11:02:42.756Z,90.79
2023-01-23T11:03:41.713Z,90.69
2023-01-23T11:04:41.683Z,90.69
2023-01-23T11:05:52.166Z,90.69
2023-01-23T11:06:41.749Z,90.79
2023-01-23T11:07:40.707Z,90.69
2023-01-23T11:08:40.676Z,90.47
2023-01-23T11:09:40.682Z,90.06
2023-01-23T11:10:41.606Z,89.92
2023-01-23T11:11:41.630Z,89.64
2023-01-23T11:12:41.594Z,89.75
2023-01-23T11:13:40.643Z,89.85
2023-01-23T11:14:40.606Z,89.75
2023-01-23T11:15:40.651Z,89.95
2023-01-23T11:16:40.643Z,90.06
2023-01-23T11:17:40.605Z,90.23
2023-01-23T11:18:40.557Z,90.02
2023-01-23T11:19:40.576Z,89.92
2023-01-23T11:20:42.009Z,89.92
2023-01-23T11:21:40.573Z,89.81
2023-01-23T11:22:40.528Z,89.92
2023-01-23T11:23:41.498Z,89.85
2023-01-23T11:24:41.730Z,89.95
2023-01-23T11:25:40.529Z,90.26
2023-01-23T11:26:40.477Z,90.47
2023-01-23T11:27:40.520Z,90.47
2023-01-23T11:28:40.464Z,90.16
2023-01-23T11:29:40.541Z,90.26
2023-01-23T11:30:40.590Z,90.79
2023-01-23T11:31:40.541Z,91.14
2023-01-23T11:32:40.444Z,91.20
2023-01-23T11:33:40.478Z,91.41
2023-01-23T11:34:40.396Z,91.25
2023-01-23T11:35:40.439Z,91.35
2023-01-23T11:36:40.374Z,91.41
2023-01-23T11:37:40.380Z,91.31
2023-01-23T11:38:51.417Z,91.10
2023-01-23T11:39:41.363Z,91.00
2023-01-23T11:40:40.347Z,91.00
2023-01-23T11:41:40.355Z,90.89
2023-01-23T11:42:40.301Z,90.58
2023-01-23T11:43:40.333Z,90.44
2023-01-23T11:44:45.848Z,90.33
2023-01-23T11:45:41.295Z,90.23
2023-01-23T11:46:40.367Z,90.33
2023-01-23T11:47:40.282Z,90.12
2023-01-23T11:48:40.290Z,89.92
2023-01-23T11:49:40.265Z,89.92
2023-01-23T11:50:54.081Z,89.85
2023-01-23T11:51:41.295Z,90.16
2023-01-23T11:52:40.245Z,90.47
2023-01-23T11:53:42.845Z,90.16
2023-01-23T11:54:40.200Z,90.06
2023-01-23T11:55:40.178Z,90.47
2023-01-23T11:56:40.177Z,90.79
2023-01-23T11:57:40.166Z,91.20
2023-01-23T11:58:49.561Z,91.20
2023-01-23T11:59:41.126Z,91.10
2023-01-23T12:00:40.155Z,91.00
2023-01-23T12:01:40.102Z,90.89
2023-01-23T12:02:40.211Z,90.93
2023-01-23T12:03:40.145Z,91.46
2023-01-23T12:04:40.105Z,91.62
2023-01-23T12:05:40.057Z,91.41
2023-01-23T12:06:40.136Z,91.41
2023-01-23T12:07:40.055Z,91.41
2023-01-23T12:08:40.050Z,91.31
2023-01-23T12:09:40.023Z,91.14
2023-01-23T12:10:40.040Z,91.66
2023-01-23T12:11:40.033Z,91.87
2023-01-23T12:12:40.081Z,91.97
2023-01-23T12:13:39.978Z,91.87
2023-01-23T12:14:39.981Z,91.77
2023-01-23T12:15:40.122Z,91.87
2023-01-23T12:16:40.015Z,92.29
2023-01-23T12:17:40.011Z,92.29
2023-01-23T12:18:40.484Z,92.08
2023-01-23T12:19:39.906Z,91.97
2023-01-23T12:20:39.937Z,92.14
2023-01-23T12:21:39.889Z,92.14
2023-01-23T12:22:39.904Z,91.83
2023-01-23T12:23:41.791Z,91.93
2023-01-23T12:24:39.877Z,91.93
2023-01-23T12:25:39.860Z,91.52
2023-01-23T12:26:40.833Z,91.72
2023-01-23T12:27:39.818Z,91.72
2023-01-23T12:28:39.852Z,91.62
2023-01-23T12:29:39.801Z,91.52
2023-01-23T12:30:39.829Z,91.16
2023-01-23T12:31:39.861Z,90.85
2023-01-23T12:32:39.827Z,90.54
2023-01-23T12:33:39.777Z,90.44
2023-01-23T12:34:39.781Z,90.54
2023-01-23T12:35:39.739Z,91.00
2023-01-23T12:36:48.572Z,91.06
2023-01-23T12:37:40.751Z,91.06
2023-01-23T12:38:39.719Z,90.75
2023-01-23T12:39:39.692Z,90.85
2023-01-23T12:40:39.725Z,90.64
2023-01-23T12:41:40.623Z,90.75
2023-01-23T12:42:39.677Z,90.79
2023-01-23T12:43:39.688Z,91.10
2023-01-23T12:44:39.657Z,91.10
2023-01-23T12:45:39.642Z,91.20
2023-01-23T12:46:39.712Z,91.10
2023-01-23T12:47:39.597Z,91.10
2023-01-23T12:48:39.639Z,91.00
2023-01-23T12:49:39.606Z,90.75
2023-01-23T12:50:39.584Z,90.85
2023-01-23T12:51:40.515Z,90.75
2023-01-23T12:52:39.628Z,90.54